Time;durP1;ratioP1;P1;durP2;ratioP2;P2;SDS_P1;SDS_P2;PMS_P1;PMS_P2;Temp;Humidity;BMP_temperature;BMP_pressure;BME280_temperature;BME280_humidity;BME280_pressure;Samples;Min_cycle;Max_cycle;Signal;HPM_P1;HPM_P2
2022/06/29 00:02:05;;;;;;;5.82;2.05;;;;;;;14.04;100.00;156048.41;4972033;28;20050;-80
2022/06/29 00:04:31;;;;;;;3.60;1.90;;;;;;;14.09;100.00;156062.56;4956294;28;20049;-74
2022/06/29 00:06:56;;;;;;;2.30;1.92;;;;;;;14.10;100.00;156063.84;4987096;28;20064;-82
2022/06/29 00:09:22;;;;;;;3.90;2.20;;;;;;;14.05;100.00;156050.97;4982331;28;20066;-81
2022/06/29 00:11:48;;;;;;;5.85;1.80;;;;;;;14.02;100.00;156044.56;4966945;28;20129;-80
2022/06/29 00:14:14;;;;;;;4.07;2.28;;;;;;;13.95;100.00;156027.81;4981094;28;20034;-80
2022/06/29 00:16:39;;;;;;;3.60;1.92;;;;;;;14.01;100.00;156043.28;4972166;28;20035;-78
2022/06/29 00:19:05;;;;;;;4.35;2.30;;;;;;;13.97;100.00;156031.69;4951071;28;20030;-80
2022/06/29 00:21:32;;;;;;;5.43;2.30;;;;;;;13.93;100.00;156022.69;4961728;23;20394;-85
2022/06/29 00:23:59;;;;;;;5.18;1.90;;;;;;;13.94;100.00;156024.00;4968076;28;20031;-85
2022/06/29 00:26:26;;;;;;;6.75;1.90;;;;;;;13.82;100.00;155995.72;4971922;28;20035;-84
2022/06/29 00:28:52;;;;;;;4.07;2.10;;;;;;;13.85;100.00;156000.84;4967809;28;20059;-85
2022/06/29 00:31:18;;;;;;;3.42;1.80;;;;;;;13.84;100.00;155999.53;4958827;28;20047;-85
2022/06/29 00:33:43;;;;;;;4.47;2.10;;;;;;;13.80;100.00;155990.53;4980429;28;20050;-85
2022/06/29 00:36:09;;;;;;;2.80;1.98;;;;;;;13.73;100.00;155972.56;4965588;28;20126;-83
2022/06/29 00:38:35;;;;;;;6.07;2.22;;;;;;;13.68;100.00;155959.72;4982555;28;20050;-85
2022/06/29 00:41:00;;;;;;;2.92;1.90;;;;;;;13.79;100.00;155986.72;4962055;28;20078;-80
2022/06/29 00:43:26;;;;;;;5.22;2.05;;;;;;;13.73;100.00;155972.56;4977044;28;20043;-84
2022/06/29 00:45:52;;;;;;;4.63;2.13;;;;;;;13.69;100.00;155960.97;4956832;28;20132;-82
2022/06/29 00:48:18;;;;;;;7.28;2.00;;;;;;;13.69;100.00;155962.25;4971670;28;20097;-85
2022/06/29 00:50:46;;;;;;;2.70;2.20;;;;;;;13.76;100.00;155978.97;4972424;28;20039;-85
2022/06/29 00:53:16;;;;;;;2.65;1.90;;;;;;;13.78;100.00;155985.41;4970150;28;20054;-84
2022/06/29 00:55:44;;;;;;;6.15;2.00;;;;;;;13.76;100.00;155978.97;4966089;28;20035;-83
2022/06/29 00:58:15;;;;;;;3.50;2.05;;;;;;;13.73;100.00;155971.25;4974753;28;20035;-82
2022/06/29 01:00:42;;;;;;;7.05;2.28;;;;;;;13.68;100.00;155959.72;4961312;28;20043;-85
2022/06/29 01:03:08;;;;;;;4.90;2.33;;;;;;;13.68;100.00;155959.72;4955140;28;20053;-84
2022/06/29 01:05:33;;;;;;;3.05;2.10;;;;;;;13.69;100.00;155960.97;4956038;28;20047;-83
2022/06/29 01:07:59;;;;;;;5.10;2.10;;;;;;;13.69;100.00;155960.97;4965860;28;20050;-85
2022/06/29 01:10:26;;;;;;;2.15;1.95;;;;;;;13.65;100.00;155951.97;4956881;28;20556;-81
2022/06/29 01:12:52;;;;;;;4.30;2.08;;;;;;;13.56;100.00;155928.84;4992637;28;20469;-85
2022/06/29 01:15:19;;;;;;;2.67;2.03;;;;;;;13.43;100.00;155896.75;4965630;28;20039;-84
2022/06/29 01:17:45;;;;;;;3.70;2.20;;;;;;;13.44;100.00;155899.28;4949499;28;20502;-83
2022/06/29 01:20:11;;;;;;;5.63;2.03;;;;;;;13.41;100.00;155891.56;4953793;28;20039;-84
2022/06/29 01:22:37;;;;;;;3.10;2.10;;;;;;;13.37;100.00;155882.59;4975999;28;20041;-83
2022/06/29 01:25:04;;;;;;;7.55;2.35;;;;;;;13.36;100.00;155878.75;4958885;28;20042;-86
2022/06/29 01:27:29;;;;;;;4.88;2.28;;;;;;;13.29;100.00;155860.69;4955660;28;20038;-84
2022/06/29 01:29:55;;;;;;;7.35;2.15;;;;;;;13.36;100.00;155878.75;4961967;28;20045;-84
2022/06/29 01:32:22;;;;;;;2.13;1.73;;;;;;;13.33;100.00;155871.00;4973220;28;20034;-84
2022/06/29 01:34:48;;;;;;;3.28;2.33;;;;;;;13.24;100.00;155850.41;4959050;28;20035;-84
2022/06/29 01:37:14;;;;;;;2.30;2.10;;;;;;;13.24;100.00;155850.41;4955461;28;20066;-83
2022/06/29 01:39:40;;;;;;;3.63;2.35;;;;;;;13.18;100.00;155833.69;4951203;28;20041;-83
2022/06/29 01:42:07;;;;;;;5.20;2.58;;;;;;;13.22;100.00;155845.28;4972764;28;20106;-84
2022/06/29 01:44:34;;;;;;;3.83;2.00;;;;;;;13.18;100.00;155833.69;4978916;28;20122;-84
2022/06/29 01:47:01;;;;;;;7.22;2.10;;;;;;;13.18;100.00;155834.97;4974651;28;20050;-84
2022/06/29 01:49:27;;;;;;;6.20;2.00;;;;;;;13.20;100.00;155838.81;4935179;28;20744;-83
2022/06/29 01:51:56;;;;;;;3.20;2.15;;;;;;;13.19;100.00;155836.28;4967752;28;20039;-84
2022/06/29 01:54:22;;;;;;;4.00;2.08;;;;;;;13.16;100.00;155828.56;4961002;28;20409;-83
2022/06/29 01:56:48;;;;;;;3.25;1.90;;;;;;;13.17;100.00;155832.41;4957864;28;20027;-84
2022/06/29 01:59:14;;;;;;;3.35;2.03;;;;;;;13.17;100.00;155831.16;4972841;28;20062;-84
2022/06/29 02:01:40;;;;;;;3.53;1.77;;;;;;;13.09;100.00;155810.56;4960666;28;20109;-84
2022/06/29 02:04:06;;;;;;;4.20;2.22;;;;;;;13.12;100.00;155819.56;4953442;28;20039;-85
2022/06/29 02:06:32;;;;;;;4.13;1.80;;;;;;;13.11;100.00;155815.69;4972559;28;20035;-84
2022/06/29 02:08:58;;;;;;;2.17;1.88;;;;;;;13.12;100.00;155818.28;4982140;28;20533;-83
2022/06/29 02:11:24;;;;;;;5.00;2.15;;;;;;;13.12;100.00;155818.28;4993875;28;20073;-82
2022/06/29 02:13:50;;;;;;;7.32;1.95;;;;;;;13.08;100.00;155809.28;5010936;28;20046;-81
2022/06/29 02:16:16;;;;;;;2.45;1.75;;;;;;;13.07;100.00;155805.41;4981805;28;20042;-84
2022/06/29 02:18:42;;;;;;;3.75;1.80;;;;;;;13.02;100.00;155795.16;4980813;28;20162;-80
2022/06/29 02:21:08;;;;;;;3.05;1.90;;;;;;;12.97;100.00;155782.28;4984833;28;20029;-84
2022/06/29 02:23:34;;;;;;;3.10;2.00;;;;;;;12.97;100.00;155781.00;4965720;28;20049;-83
2022/06/29 02:26:00;;;;;;;2.58;1.67;;;;;;;12.94;100.00;155774.63;4987516;28;20038;-85
2022/06/29 02:28:25;;;;;;;3.65;1.95;;;;;;;12.92;100.00;155768.16;4988891;28;20022;-84
2022/06/29 02:36:19;;;;;;;3.60;1.70;;;;;;;12.88;100.00;155759.16;4993278;28;20069;-85
2022/06/29 02:38:45;;;;;;;4.38;1.90;;;;;;;12.84;100.00;155750.16;4993318;28;20453;-85
2022/06/29 02:41:10;;;;;;;2.38;1.90;;;;;;;12.88;100.00;155757.88;4996329;28;20070;-83
2022/06/29 02:43:37;;;;;;;2.03;1.80;;;;;;;12.85;100.00;155751.47;4993841;28;20054;-83
2022/06/29 02:46:03;;;;;;;3.20;2.13;;;;;;;12.78;100.00;155734.75;4982603;28;20037;-83
2022/06/29 02:48:29;;;;;;;2.90;1.70;;;;;;;12.76;100.00;155729.63;4958481;28;20035;-84
2022/06/29 02:50:54;;;;;;;3.95;1.95;;;;;;;12.77;100.00;155732.22;4977055;28;20053;-85
2022/06/29 02:53:20;;;;;;;3.58;2.20;;;;;;;12.77;100.00;155730.88;4979167;28;20133;-84
2022/06/29 02:55:45;;;;;;;3.15;1.98;;;;;;;12.70;100.00;155714.22;4975288;28;20085;-84
2022/06/29 02:58:11;;;;;;;3.53;1.55;;;;;;;12.66;100.00;155703.94;4987756;28;20092;-83
2022/06/29 03:00:36;;;;;;;2.85;2.00;;;;;;;12.66;100.00;155703.94;4983094;28;20061;-84
2022/06/29 03:03:02;;;;;;;4.63;2.00;;;;;;;12.66;100.00;155703.94;4979131;28;20042;-84
2022/06/29 03:05:28;;;;;;;3.65;1.80;;;;;;;12.65;100.00;155701.34;4992221;28;20044;-84
2022/06/29 03:07:53;;;;;;;4.93;1.92;;;;;;;12.59;100.00;155687.22;4980784;28;20034;-83
2022/06/29 03:10:19;;;;;;;3.08;2.00;;;;;;;12.65;100.00;155702.63;4979958;28;20125;-83
2022/06/29 03:12:45;;;;;;;1.83;1.70;;;;;;;12.64;100.00;155700.09;4981312;28;20077;-84
2022/06/29 03:15:10;;;;;;;4.47;2.03;;;;;;;12.60;100.00;155689.81;4980012;28;20039;-84
2022/06/29 03:17:36;;;;;;;3.17;1.90;;;;;;;12.66;100.00;155703.94;4965875;28;20053;-84
2022/06/29 03:20:04;;;;;;;2.28;2.00;;;;;;;12.61;100.00;155692.34;4981777;28;20053;-84
2022/06/29 03:22:31;;;;;;;4.03;1.95;;;;;;;12.71;100.00;155716.75;4976095;28;20038;-84
2022/06/29 03:24:56;;;;;;;3.65;2.00;;;;;;;12.77;100.00;155730.88;4965695;28;20062;-84
2022/06/29 03:27:22;;;;;;;1.98;1.70;;;;;;;12.81;100.00;155741.22;4966078;28;20053;-83
2022/06/29 03:29:47;;;;;;;4.45;2.00;;;;;;;12.82;100.00;155743.75;4980226;28;20045;-83
2022/06/29 03:32:13;;;;;;;5.40;2.20;;;;;;;12.81;100.00;155741.22;4995701;28;20058;-83
2022/06/29 03:34:39;;;;;;;2.53;1.80;;;;;;;12.93;100.00;155772.00;4981903;28;20030;-83
2022/06/29 03:37:04;;;;;;;3.90;1.95;;;;;;;12.93;100.00;155772.00;4978128;28;20026;-83
2022/06/29 03:39:30;;;;;;;4.68;2.10;;;;;;;13.10;100.00;155814.41;4984675;28;20038;-85
2022/06/29 03:41:56;;;;;;;5.35;2.00;;;;;;;13.14;100.00;155824.69;4983623;28;20038;-84
2022/06/29 03:44:21;;;;;;;4.40;2.00;;;;;;;13.27;100.00;155855.56;4985050;28;20054;-84
2022/06/29 03:46:47;;;;;;;5.85;1.90;;;;;;;13.31;100.00;155865.88;5003349;28;20101;-83
2022/06/29 03:49:12;;;;;;;4.75;1.83;;;;;;;13.40;100.00;155889.00;4996670;28;20042;-83
2022/06/29 03:51:38;;;;;;;5.40;1.90;;;;;;;13.43;100.00;155898.00;5003844;28;20049;-85
2022/06/29 03:54:04;;;;;;;2.97;1.90;;;;;;;13.48;100.00;155909.56;4995896;28;20035;-85
2022/06/29 03:56:29;;;;;;;2.67;1.75;;;;;;;13.52;100.00;155919.84;4978929;28;20608;-85
2022/06/29 03:58:55;;;;;;;2.97;1.70;;;;;;;13.60;100.00;155939.16;4988681;28;20031;-84
2022/06/29 04:01:21;;;;;;;2.08;1.80;;;;;;;13.59;100.00;155937.84;4957974;28;20073;-83
2022/06/29 04:03:46;;;;;;;2.55;1.70;;;;;;;13.66;100.00;155954.56;4978801;28;20074;-84
2022/06/29 04:06:13;;;;;;;4.13;1.60;;;;;;;13.70;100.00;155964.84;4976642;28;20030;-85
2022/06/29 04:08:39;;;;;;;2.67;1.90;;;;;;;13.72;100.00;155969.97;4976694;28;20038;-83
2022/06/29 04:11:48;;;;;;;6.63;1.95;;;;;;;13.71;100.00;155966.13;4984351;28;20508;-84
2022/06/29 04:13:52;;;;;;;2.45;1.52;;;;;;;13.86;100.00;156004.66;4980557;28;20049;-83
2022/06/29 04:16:18;;;;;;;4.10;1.70;;;;;;;13.89;100.00;156011.13;4959403;28;20097;-85
2022/06/29 04:18:43;;;;;;;5.60;1.80;;;;;;;13.91;100.00;156016.25;4996824;28;20034;-83
2022/06/29 04:21:09;;;;;;;4.63;1.63;;;;;;;14.00;100.00;156039.41;4986701;28;20144;-83
2022/06/29 04:23:34;;;;;;;7.93;1.85;;;;;;;14.03;100.00;156047.09;4984431;28;20061;-83
2022/06/29 04:26:00;;;;;;;4.60;2.13;;;;;;;14.04;100.00;156049.69;4981459;28;20033;-83
2022/06/29 04:28:26;;;;;;;2.50;1.50;;;;;;;14.10;100.00;156065.09;4957467;28;20027;-83
2022/06/29 04:30:51;;;;;;;8.27;1.88;;;;;;;14.13;100.00;156071.56;4991955;28;20035;-84
2022/06/29 04:33:17;;;;;;;10.00;1.77;;;;;;;14.21;100.00;156093.41;4958210;28;20065;-84
2022/06/29 04:35:43;;;;;;;3.13;1.50;;;;;;;14.30;100.00;156114.00;5007020;28;20042;-83
2022/06/29 04:38:08;;;;;;;3.13;1.55;;;;;;;14.33;100.00;156122.97;4977070;28;20039;-84
2022/06/29 04:40:34;;;;;;;4.75;1.60;;;;;;;14.37;100.00;156131.97;4976727;28;20043;-82
2022/06/29 04:42:59;;;;;;;2.83;1.52;;;;;;;14.40;100.00;156140.97;4984696;28;20041;-83
2022/06/29 04:48:09;;;;;;;4.05;1.60;;;;;;;14.47;100.00;156156.44;4989658;28;20031;-84
2022/06/29 04:50:35;;;;;;;14.77;2.00;;;;;;;14.49;100.00;156162.84;4986240;28;20043;-84
2022/06/29 04:53:00;;;;;;;2.40;1.40;;;;;;;14.44;100.00;156149.97;4983159;28;20124;-83
2022/06/29 04:55:28;;;;;;;2.03;1.60;;;;;;;14.62;100.00;156195.06;4975281;28;20093;-84
2022/06/29 04:57:54;;;;;;;2.55;1.42;;;;;;;14.72;100.00;156220.75;4980305;28;20053;-85
2022/06/29 05:00:19;;;;;;;1.95;1.45;;;;;;;14.76;100.00;156231.03;4982817;28;20416;-83
2022/06/29 05:02:45;;;;;;;1.98;1.40;;;;;;;14.81;100.00;156241.38;4964478;28;20045;-83
2022/06/29 05:05:11;;;;;;;2.92;1.27;;;;;;;14.92;100.00;156269.66;4977019;28;20046;-84
2022/06/29 05:07:36;;;;;;;4.55;1.58;;;;;;;15.07;100.00;156306.94;4991865;28;20041;-83
2022/06/29 05:10:02;;;;;;;3.30;1.48;;;;;;;15.15;100.00;156328.81;4983905;28;20038;-85
2022/06/29 05:12:28;;;;;;;2.58;1.20;;;;;;;15.46;100.00;156406.00;4979607;28;20050;-83
2022/06/29 05:14:53;;;;;;;5.43;1.50;;;;;;;15.68;100.00;156460.09;4982922;28;20054;-80
2022/06/29 05:17:19;;;;;;;2.83;1.20;;;;;;;15.97;100.00;156533.47;4994871;28;20053;-79
2022/06/29 05:19:45;;;;;;;4.30;1.25;;;;;;;16.26;97.35;156606.88;4978101;28;20074;-80
2022/06/29 05:22:10;;;;;;;3.20;1.20;;;;;;;16.30;98.66;156617.16;4961701;28;20093;-81
2022/06/29 05:24:36;;;;;;;3.40;1.17;;;;;;;16.58;94.58;156685.41;4965732;28;20093;-80
2022/06/29 05:27:02;;;;;;;1.90;1.40;;;;;;;16.73;93.92;156725.31;4998090;28;20411;-79
2022/06/29 05:29:27;;;;;;;3.30;1.05;;;;;;;16.92;91.93;156773.00;4976304;28;20030;-80
2022/06/29 05:31:53;;;;;;;5.03;1.05;;;;;;;17.07;91.24;156809.09;4977406;28;20141;-79
2022/06/29 05:34:18;;;;;;;2.17;1.10;;;;;;;17.06;91.74;156807.78;5003426;28;20101;-80
2022/06/29 05:36:44;;;;;;;3.72;0.98;;;;;;;17.25;89.31;156854.16;4981146;28;20034;-79
2022/06/29 05:39:10;;;;;;;2.95;1.10;;;;;;;17.36;87.79;156882.50;4984568;28;20031;-81
2022/06/29 05:41:35;;;;;;;2.45;1.00;;;;;;;17.45;88.55;156904.41;4983764;28;20037;-79
2022/06/29 05:44:04;;;;;;;2.75;1.10;;;;;;;17.57;87.91;156934.03;4964761;28;20389;-80
2022/06/29 05:46:31;;;;;;;2.42;1.25;;;;;;;17.65;87.60;156954.63;4973696;28;20528;-81
2022/06/29 05:48:56;;;;;;;2.55;1.13;;;;;;;17.80;86.45;156992.00;4989917;28;20034;-80
2022/06/29 05:51:22;;;;;;;2.58;1.10;;;;;;;17.89;85.57;157015.25;4972930;28;20042;-81
2022/06/29 05:53:49;;;;;;;1.52;1.00;;;;;;;18.00;85.56;157042.31;4996400;28;20046;-80
2022/06/29 05:56:15;;;;;;;2.83;0.90;;;;;;;18.11;86.63;157069.38;4997729;28;20127;-79
2022/06/29 05:58:41;;;;;;;3.17;0.90;;;;;;;18.18;85.47;157088.72;4965564;28;20556;-79
2022/06/29 06:01:09;;;;;;;3.28;0.90;;;;;;;18.40;85.27;157142.81;4995385;28;20058;-79
2022/06/29 06:03:38;;;;;;;3.00;1.10;;;;;;;18.61;84.73;157197.00;4968676;28;20050;-80
2022/06/29 06:06:03;;;;;;;2.33;1.00;;;;;;;18.75;82.96;157230.50;4969847;28;20037;-79
2022/06/29 06:08:29;;;;;;;1.75;0.95;;;;;;;18.73;83.36;157225.34;4981419;28;20031;-81
2022/06/29 06:10:55;;;;;;;4.75;0.93;;;;;;;18.76;82.99;157234.38;4994642;28;20730;-80
2022/06/29 06:13:20;;;;;;;5.47;1.00;;;;;;;18.74;83.73;157227.91;4980229;28;20037;-80
2022/06/29 06:15:47;;;;;;;3.08;1.17;;;;;;;18.59;84.84;157191.84;4995313;28;20101;-79
2022/06/29 06:18:13;;;;;;;4.75;1.05;;;;;;;18.65;86.75;157206.03;5001186;28;20540;-81
2022/06/29 06:20:47;;;;;;;2.50;1.10;;;;;;;18.63;85.06;157200.88;4966981;28;20048;-77
2022/06/29 06:23:12;;;;;;;3.08;1.35;;;;;;;19.04;84.08;157304.03;4887293;29;20076;-79
2022/06/29 06:25:38;;;;;;;3.20;1.00;;;;;;;19.13;83.43;157325.97;4900820;29;20111;-80
2022/06/29 06:28:07;;;;;;;3.35;1.20;;;;;;;19.26;84.45;157359.47;4908649;29;20036;-80
2022/06/29 06:30:32;;;;;;;2.65;1.13;;;;;;;19.33;85.90;157376.25;4910912;29;20040;-78
2022/06/29 06:32:58;;;;;;;2.05;1.00;;;;;;;19.45;84.46;157408.47;4872644;29;20092;-79
2022/06/29 06:35:24;;;;;;;4.30;1.20;;;;;;;19.51;85.79;157421.38;4845113;29;20131;-78
2022/06/29 06:37:51;;;;;;;1.00;0.90;;;;;;;19.57;85.65;157436.84;4879435;29;20052;-78
2022/06/29 06:43:01;;;;;;;5.07;1.05;;;;;;;19.78;83.95;157491.09;4891869;29;20729;-78
2022/06/29 06:45:27;;;;;;;1.98;1.20;;;;;;;19.75;82.78;157482.06;4885523;29;20139;-78
2022/06/29 06:47:53;;;;;;;2.20;1.08;;;;;;;19.67;84.38;157461.38;4881879;29;20056;-78
2022/06/29 06:50:19;;;;;;;2.58;1.20;;;;;;;19.60;84.21;157445.88;4875443;29;20085;-76
2022/06/29 06:52:45;;;;;;;1.33;1.00;;;;;;;19.57;85.43;157438.16;4876164;29;20033;-76
2022/06/29 06:55:10;;;;;;;2.58;1.23;;;;;;;19.76;84.80;157485.94;4887756;29;20036;-78
2022/06/29 06:57:36;;;;;;;2.45;1.60;;;;;;;19.95;85.15;157532.38;4881598;29;20547;-77
2022/06/29 07:00:03;;;;;;;5.53;1.15;;;;;;;20.14;82.78;157581.41;4876143;29;20032;-77
2022/06/29 07:02:29;;;;;;;3.58;1.30;;;;;;;20.28;83.28;157614.94;4875170;29;20734;-79
2022/06/29 07:04:55;;;;;;;3.38;1.27;;;;;;;20.48;83.49;157666.56;4886216;29;20033;-77
2022/06/29 07:07:21;;;;;;;4.25;1.20;;;;;;;20.58;83.59;157691.06;4884937;29;20045;-79
2022/06/29 07:09:46;;;;;;;3.22;1.00;;;;;;;20.63;83.64;157702.75;4885406;29;20470;-76
2022/06/29 07:12:12;;;;;;;3.05;1.42;;;;;;;20.71;83.63;157723.38;4871717;29;20035;-79
2022/06/29 07:14:38;;;;;;;1.58;1.10;;;;;;;20.79;79.34;157745.34;4887674;29;20678;-79
2022/06/29 07:17:03;;;;;;;2.83;1.10;;;;;;;20.73;80.31;157728.53;4880460;29;20052;-77
2022/06/29 07:19:29;;;;;;;1.95;1.20;;;;;;;20.67;80.09;157713.06;4870644;29;20041;-77
2022/06/29 07:21:55;;;;;;;4.07;1.15;;;;;;;20.66;78.62;157710.47;4881767;29;20068;-80
2022/06/29 07:24:21;;;;;;;5.20;1.20;;;;;;;20.65;81.54;157707.91;4886095;29;20167;-79
2022/06/29 07:26:46;;;;;;;1.77;1.10;;;;;;;20.64;81.06;157705.31;4873520;29;20033;-79
2022/06/29 07:29:12;;;;;;;1.42;1.20;;;;;;;20.60;80.88;157696.28;4880620;29;20131;-79
2022/06/29 07:31:37;;;;;;;3.78;1.30;;;;;;;20.68;80.28;157715.63;4884449;29;20080;-78
2022/06/29 07:34:04;;;;;;;3.03;1.00;;;;;;;20.76;79.44;157737.59;4889655;29;20036;-78
2022/06/29 07:36:30;;;;;;;4.07;1.13;;;;;;;20.88;79.25;157767.25;4888632;29;20036;-80
2022/06/29 07:38:56;;;;;;;3.63;1.23;;;;;;;21.05;78.82;157809.84;4885512;29;20100;-79
2022/06/29 07:41:22;;;;;;;7.15;1.30;;;;;;;21.35;79.87;157886.00;4887700;29;20722;-78
2022/06/29 07:43:47;;;;;;;3.15;1.10;;;;;;;21.55;78.83;157936.44;4887588;29;20041;-77
2022/06/29 07:46:13;;;;;;;2.85;1.17;;;;;;;21.68;78.63;157967.38;4893713;29;20029;-78
2022/06/29 07:48:39;;;;;;;2.88;1.10;;;;;;;21.84;75.22;158007.44;4893580;29;20037;-77
2022/06/29 07:51:04;;;;;;;3.70;1.27;;;;;;;21.80;75.13;157997.13;4878796;29;20036;-77
2022/06/29 07:53:31;;;;;;;2.72;1.20;;;;;;;21.67;77.49;157964.84;4877397;29;20044;-80
2022/06/29 07:55:56;;;;;;;1.35;1.05;;;;;;;21.63;77.69;157954.50;4876626;29;20029;-78
2022/06/29 07:58:23;;;;;;;3.47;1.52;;;;;;;21.73;77.83;157980.31;4874669;29;20041;-80
2022/06/29 08:00:49;;;;;;;2.63;1.17;;;;;;;22.01;75.92;158050.06;4885400;29;20452;-78
2022/06/29 08:03:15;;;;;;;3.00;1.30;;;;;;;22.24;75.30;158108.16;4880958;29;20048;-77
2022/06/29 08:05:41;;;;;;;3.88;1.20;;;;;;;22.39;74.80;158146.97;4896484;29;20658;-80
2022/06/29 08:08:07;;;;;;;2.70;1.08;;;;;;;22.49;73.79;158172.81;4912139;29;20032;-78
2022/06/29 08:10:34;;;;;;;1.90;1.10;;;;;;;22.59;74.42;158197.34;4908112;29;20503;-80
2022/06/29 08:13:00;;;;;;;4.32;1.30;;;;;;;22.76;76.04;158238.69;4907515;29;20198;-80
2022/06/29 08:15:26;;;;;;;2.90;1.13;;;;;;;22.75;72.55;158237.38;4891078;29;20550;-77
2022/06/29 08:17:52;;;;;;;2.92;1.20;;;;;;;22.89;73.03;158272.28;4895638;29;20062;-79
2022/06/29 08:20:19;;;;;;;2.40;1.27;;;;;;;22.96;73.28;158290.34;4895472;29;20052;-78
2022/06/29 08:22:45;;;;;;;5.55;1.38;;;;;;;22.97;73.45;158292.94;4890901;29;20039;-79
2022/06/29 08:25:11;;;;;;;1.60;1.13;;;;;;;23.20;75.38;158349.84;4899313;29;20036;-78
2022/06/29 08:27:37;;;;;;;2.95;1.20;;;;;;;23.25;72.53;158362.78;4889022;29;20131;-78
2022/06/29 08:30:05;;;;;;;1.45;1.27;;;;;;;23.19;72.03;158348.56;4906674;29;20059;-80
2022/06/29 08:32:30;;;;;;;3.15;1.27;;;;;;;23.08;74.80;158320.13;4909127;29;20036;-79
2022/06/29 08:34:59;;;;;;;2.42;1.20;;;;;;;23.00;72.61;158299.38;4909364;29;20388;-79
2022/06/29 08:37:26;;;;;;;2.75;1.38;;;;;;;22.94;73.12;158285.19;4897981;29;20032;-76
2022/06/29 08:39:51;;;;;;;1.40;1.00;;;;;;;23.01;74.46;158303.28;4911854;29;20119;-78
2022/06/29 08:42:22;;;;;;;1.38;1.20;;;;;;;23.08;72.78;158321.41;4913984;29;20139;-78
2022/06/29 08:44:49;;;;;;;2.70;1.08;;;;;;;23.35;71.64;158387.31;4902241;29;20039;-78
2022/06/29 08:47:15;;;;;;;3.85;1.25;;;;;;;23.54;69.90;158436.41;4910816;29;20056;-78
2022/06/29 08:49:41;;;;;;;1.48;1.17;;;;;;;23.68;70.81;158472.63;4910402;29;20075;-75
2022/06/29 08:52:09;;;;;;;2.17;1.10;;;;;;;23.80;68.32;158501.13;4913777;29;20129;-76
2022/06/29 08:54:46;;;;;;;1.95;0.82;;;;;;;23.85;67.88;158514.06;4908683;29;20028;-77
2022/06/29 08:57:13;;;;;;;2.30;0.85;;;;;;;24.00;69.95;158551.56;4907151;29;20032;-78
2022/06/29 08:59:39;;;;;;;6.43;1.10;;;;;;;24.25;68.45;158616.16;4911081;29;20093;-79
2022/06/29 09:02:05;;;;;;;2.83;1.10;;;;;;;24.52;66.09;158682.16;4908732;29;20028;-76
2022/06/29 09:04:31;;;;;;;1.33;1.17;;;;;;;24.62;67.74;158708.00;4910709;29;20151;-80
2022/06/29 09:06:57;;;;;;;1.85;1.30;;;;;;;24.81;65.99;158757.16;4913951;29;20128;-79
2022/06/29 09:09:24;;;;;;;2.80;1.13;;;;;;;24.82;65.11;158759.72;4911801;29;20064;-79
2022/06/29 09:11:51;;;;;;;2.42;1.05;;;;;;;24.89;64.23;158775.28;4911540;29;20386;-80
2022/06/29 09:14:18;;;;;;;1.42;1.10;;;;;;;25.02;64.47;158808.91;4914912;29;20032;-78
2022/06/29 09:16:59;;;;;;;1.02;0.90;;;;;;;25.31;65.95;158881.38;4911293;29;20052;-77
2022/06/29 09:19:28;;;;;;;1.65;0.98;;;;;;;25.50;61.80;158930.50;4905886;29;20040;-79
2022/06/29 09:21:56;;;;;;;2.70;1.10;;;;;;;25.52;59.52;158935.69;4904840;29;20142;-78
2022/06/29 09:24:25;;;;;;;3.63;1.02;;;;;;;25.49;61.05;158926.69;4902543;29;20037;-79
2022/06/29 09:26:57;;;;;;;1.58;1.10;;;;;;;25.62;61.84;158960.31;4907493;29;20559;-78
2022/06/29 09:29:28;;;;;;;4.38;1.10;;;;;;;25.75;59.36;158992.59;4915851;29;20033;-81
2022/06/29 09:32:09;;;;;;;1.40;1.30;;;;;;;25.45;59.45;158918.91;4907124;29;20036;-76
2022/06/29 09:34:41;;;;;;;1.60;1.20;;;;;;;25.33;60.38;158887.81;4904304;29;20075;-80
2022/06/29 09:37:09;;;;;;;1.95;1.00;;;;;;;25.36;65.67;158894.31;4911554;29;20040;-79
2022/06/29 09:39:52;;;;;;;1.10;1.10;;;;;;;25.27;61.17;158871.03;4903359;29;20047;-78
2022/06/29 09:42:24;;;;;;;4.63;1.20;;;;;;;24.93;61.77;158786.91;4898158;29;20107;-79
2022/06/29 09:44:50;;;;;;;1.63;1.02;;;;;;;24.58;63.55;158699.00;4914125;29;20091;-80
2022/06/29 09:47:19;;;;;;;1.17;1.08;;;;;;;24.56;62.38;158693.78;4906168;29;20131;-79
2022/06/29 09:49:52;;;;;;;2.85;1.20;;;;;;;24.64;62.48;158713.22;4910447;29;20415;-79
2022/06/29 09:52:19;;;;;;;1.67;1.15;;;;;;;24.55;63.64;158691.22;4894286;29;20519;-79
2022/06/29 09:54:56;;;;;;;1.98;1.30;;;;;;;24.61;64.44;158705.44;4903081;29;20150;-77
2022/06/29 09:57:25;;;;;;;2.35;1.48;;;;;;;25.23;64.27;158863.25;4906243;29;20542;-82
2022/06/29 10:02:48;;;;;;;2.60;1.30;;;;;;;26.12;59.64;159085.84;4908280;29;20035;-82
2022/06/29 10:05:15;;;;;;;1.05;1.00;;;;;;;26.51;57.47;159184.22;4910172;29;20028;-80
2022/06/29 10:07:43;;;;;;;1.08;1.00;;;;;;;26.86;60.07;159272.25;4896064;29;20099;-76
2022/06/29 10:10:11;;;;;;;1.30;1.20;;;;;;;26.91;55.74;159285.22;4908595;29;20076;-79
2022/06/29 10:16:00;;;;;;;2.97;1.17;;;;;;;26.97;56.53;159300.72;4910677;29;20039;-79
2022/06/29 10:18:39;;;;;;;1.17;1.08;;;;;;;26.20;57.02;159106.53;4911123;29;20046;-81
2022/06/29 10:21:13;;;;;;;2.60;1.08;;;;;;;25.59;58.98;158952.53;4907684;29;20427;-79
2022/06/29 10:23:50;;;;;;;1.20;1.10;;;;;;;25.38;61.84;158899.50;4905724;29;20032;-74
2022/06/29 10:26:32;;;;;;;4.60;1.10;;;;;;;25.97;59.71;159048.31;4906581;29;20082;-80
2022/06/29 10:29:10;;;;;;;3.03;1.20;;;;;;;26.05;59.92;159069.03;4898349;29;20031;-80
2022/06/29 10:31:54;;;;;;;1.92;1.30;;;;;;;25.64;61.26;158965.47;4906161;29;20055;-77
2022/06/29 10:34:34;;;;;;;2.25;1.38;;;;;;;25.53;60.74;158937.00;4904737;29;20479;-79
2022/06/29 10:37:12;;;;;;;1.98;1.10;;;;;;;26.09;58.17;159078.06;4898318;29;20048;-79
2022/06/29 10:39:50;;;;;;;2.78;1.17;;;;;;;26.20;59.29;159106.53;4900321;29;20037;-80
2022/06/29 10:45:13;;;;;;;2.50;1.40;;;;;;;25.91;57.72;159032.75;4896583;29;20035;-79
2022/06/29 10:47:58;;;;;;;1.45;1.33;;;;;;;25.56;60.11;158946.06;4909211;29;20071;-77
2022/06/29 10:50:25;;;;;;;2.30;1.40;;;;;;;25.53;58.45;158937.00;4883045;29;20451;-78
2022/06/29 10:52:56;;;;;;;4.70;1.30;;;;;;;25.23;59.80;158861.97;4912469;29;20044;-78
2022/06/29 10:55:25;;;;;;;1.40;1.30;;;;;;;24.99;59.25;158801.13;4904965;29;20078;-78
2022/06/29 10:57:52;;;;;;;2.83;1.13;;;;;;;25.61;60.02;158958.97;4900014;29;20495;-79
2022/06/29 11:00:26;;;;;;;6.68;1.48;;;;;;;26.64;55.46;159216.63;4904770;29;20035;-80
2022/06/29 11:02:52;;;;;;;3.00;1.10;;;;;;;27.12;48.59;159338.28;4901007;29;20409;-80
2022/06/29 11:05:19;;;;;;;1.95;1.10;;;;;;;26.44;51.74;159166.09;4905477;29;20047;-79
2022/06/29 11:13:28;;;;;;;2.33;0.90;;;;;;;27.85;49.88;159522.22;4886035;29;20040;-78
2022/06/29 11:15:56;;;;;;;3.75;1.02;;;;;;;28.12;50.02;159592.22;4860781;29;20047;-80
2022/06/29 11:18:29;;;;;;;4.03;1.13;;;;;;;28.21;49.12;159614.22;4886850;29;20045;-80
2022/06/29 11:21:03;;;;;;;0.70;0.70;;;;;;;28.17;48.09;159602.56;4890170;29;20036;-79
2022/06/29 11:23:34;;;;;;;4.38;1.02;;;;;;;28.36;46.67;159651.78;4859069;29;20499;-78
2022/06/29 11:26:01;;;;;;;1.53;0.90;;;;;;;28.53;48.54;159694.56;4891892;29;20040;-79
2022/06/29 11:28:29;;;;;;;2.85;1.00;;;;;;;28.48;45.50;159681.56;4884445;29;20268;-81
2022/06/29 11:31:02;;;;;;;3.53;1.20;;;;;;;28.26;47.10;159625.88;4881498;29;20389;-81
2022/06/29 11:33:30;;;;;;;3.05;0.95;;;;;;;27.93;48.18;159544.31;4870672;29;20082;-79
2022/06/29 11:35:56;;;;;;;3.47;1.08;;;;;;;28.03;43.65;159567.56;4886335;29;20132;-79
2022/06/29 11:38:27;;;;;;;1.77;1.17;;;;;;;28.29;45.71;159633.63;4884477;29;20432;-79
2022/06/29 11:40:54;;;;;;;2.38;0.98;;;;;;;28.14;43.42;159596.06;4881299;29;20144;-79
2022/06/29 11:43:20;;;;;;;1.45;0.75;;;;;;;27.93;43.86;159544.31;4885030;29;20040;-79
2022/06/29 11:45:52;;;;;;;1.10;0.88;;;;;;;27.96;45.62;159552.03;4880473;29;20037;-78
2022/06/29 11:48:20;;;;;;;1.90;1.10;;;;;;;28.04;47.83;159570.19;4866076;29;20033;-80